Time;durP1;ratioP1;P1;durP2;ratioP2;P2;SDS_P1;SDS_P2;PMS_P1;PMS_P2;Temp;Humidity;BMP_temperature;BMP_pressure;BME280_temperature;BME280_humidity;BME280_pressure;Samples;Min_cycle;Max_cycle;Signal;HPM_P1;HPM_P2
2022/03/25 00:01:57;;;;;;;;;;;9.70;56.30;;;;;;2301772;58;20135;-77
2022/03/25 00:04:23;;;;;;;;;;;9.70;56.30;;;;;;2302088;58;20120;-76
2022/03/25 00:06:50;;;;;;;;;;;9.70;56.40;;;;;;2300561;58;20295;-77
2022/03/25 00:09:16;;;;;;;;;;;9.70;56.30;;;;;;2300534;58;20068;-77
2022/03/25 00:11:43;;;;;;;;;;;9.60;56.20;;;;;;2301314;58;20299;-77
2022/03/25 00:14:11;;;;;;;;;;;9.60;56.40;;;;;;2301278;58;20329;-76
2022/03/25 00:16:37;;;;;;;;;;;9.60;56.60;;;;;;2301718;58;20211;-77
2022/03/25 00:19:04;;;;;;;;;;;9.50;56.70;;;;;;2538300;54;20080;-77
2022/03/25 00:21:31;;;;;;;;;;;9.50;56.70;;;;;;2301518;58;20398;-77
2022/03/25 00:23:57;;;;;;;;;;;9.50;56.70;;;;;;2301686;58;20147;-77
2022/03/25 00:26:24;;;;;;;;;;;9.40;56.70;;;;;;2299969;58;20808;-77
2022/03/25 00:28:50;;;;;;;;;;;9.40;56.90;;;;;;2301258;58;20314;-78
2022/03/25 00:31:17;;;;;;;;;;;9.40;57.00;;;;;;2301007;58;20148;-77
2022/03/25 00:33:46;;;;;;;;;;;9.40;57.10;;;;;;2301842;58;20060;-77
2022/03/25 00:36:13;;;;;;;;;;;9.40;57.10;;;;;;2301758;58;20149;-77
2022/03/25 00:38:40;;;;;;;;;;;9.30;57.10;;;;;;2301556;58;20155;-77
2022/03/25 00:41:07;;;;;;;;;;;9.30;57.20;;;;;;2300357;58;20092;-77
2022/03/25 00:43:34;;;;;;;;;;;9.30;57.10;;;;;;2301200;58;20132;-77
2022/03/25 00:46:00;;;;;;;;;;;9.30;57.30;;;;;;2301941;58;20092;-77
2022/03/25 00:48:28;;;;;;;;;;;9.20;57.30;;;;;;2301298;58;20097;-77
2022/03/25 00:50:55;;;;;;;;;;;9.20;57.30;;;;;;2301359;58;20136;-77
2022/03/25 00:53:22;;;;;;;;;;;9.20;57.40;;;;;;2301817;58;20080;-76
2022/03/25 00:55:48;;;;;;;;;;;9.20;57.40;;;;;;2301575;58;20327;-77
2022/03/25 00:58:15;;;;;;;;;;;9.20;57.30;;;;;;2536633;54;20594;-77
2022/03/25 01:00:42;;;;;;;;;;;9.10;57.40;;;;;;2301356;58;20063;-76
2022/03/25 01:03:08;;;;;;;;;;;9.10;57.40;;;;;;2538576;54;20124;-77
2022/03/25 01:05:35;;;;;;;;;;;9.10;57.50;;;;;;2301179;58;20311;-77
2022/03/25 01:08:02;;;;;;;;;;;9.10;57.50;;;;;;2301349;58;20112;-77
2022/03/25 01:10:29;;;;;;;;;;;9.00;57.60;;;;;;2301330;58;20076;-77
2022/03/25 01:12:55;;;;;;;;;;;9.00;58.20;;;;;;2300982;58;20068;-77
2022/03/25 01:15:22;;;;;;;;;;;9.00;57.60;;;;;;2300420;58;20072;-77
2022/03/25 01:17:48;;;;;;;;;;;9.00;57.60;;;;;;2538438;54;20096;-76
2022/03/25 01:20:17;;;;;;;;;;;9.00;57.70;;;;;;2301048;58;20473;-77
2022/03/25 01:22:44;;;;;;;;;;;8.90;57.70;;;;;;2300981;58;20104;-76
2022/03/25 01:25:10;;;;;;;;;;;9.00;57.80;;;;;;2538265;54;20116;-77
2022/03/25 01:27:37;;;;;;;;;;;8.90;57.90;;;;;;2301278;58;20068;-76
2022/03/25 01:30:05;;;;;;;;;;;8.90;57.90;;;;;;2301260;58;20080;-76
2022/03/25 01:32:31;;;;;;;;;;;8.90;57.90;;;;;;2300550;58;20108;-77
2022/03/25 01:34:58;;;;;;;;;;;8.90;57.80;;;;;;2538082;54;20362;-77
2022/03/25 01:37:25;;;;;;;;;;;8.80;57.70;;;;;;2301327;58;20072;-76
2022/03/25 01:39:52;;;;;;;;;;;8.80;57.70;;;;;;2538233;54;20294;-77
2022/03/25 01:42:28;;;;;;;;;;;8.80;57.90;;;;;;2301208;58;20068;-77
2022/03/25 01:44:55;;;;;;;;;;;8.80;58.00;;;;;;2301723;58;20087;-77
2022/03/25 01:47:26;;;;;;;;;;;8.80;57.90;;;;;;2537785;54;20375;-77
2022/03/25 01:49:53;;;;;;;;;;;8.70;57.90;;;;;;2301385;58;20073;-77
2022/03/25 01:52:20;;;;;;;;;;;8.70;57.90;;;;;;2301328;58;20088;-77
2022/03/25 01:54:46;;;;;;;;;;;8.70;57.90;;;;;;2538523;54;20314;-77
2022/03/25 01:57:13;;;;;;;;;;;8.70;58.00;;;;;;2301756;58;20060;-77
2022/03/25 01:59:40;;;;;;;;;;;8.70;58.10;;;;;;2538163;54;20767;-77
2022/03/25 02:02:07;;;;;;;;;;;8.70;58.10;;;;;;2301154;58;20072;-77
2022/03/25 02:04:34;;;;;;;;;;;8.60;58.10;;;;;;2300964;58;20080;-76
2022/03/25 02:07:00;;;;;;;;;;;8.60;58.20;;;;;;2301433;58;20080;-76
2022/03/25 02:09:27;;;;;;;;;;;8.60;58.30;;;;;;2301110;58;20084;-76
2022/03/25 02:11:54;;;;;;;;;;;8.60;58.20;;;;;;2301556;58;20155;-76
2022/03/25 02:14:20;;;;;;;;;;;8.60;58.20;;;;;;2301453;58;20338;-77
2022/03/25 02:16:49;;;;;;;;;;;8.60;58.20;;;;;;2301978;58;20083;-77
2022/03/25 02:19:18;;;;;;;;;;;8.60;58.20;;;;;;2538400;54;20072;-77
2022/03/25 02:21:45;;;;;;;;;;;8.50;58.10;;;;;;2301285;58;20119;-78
2022/03/25 02:24:12;;;;;;;;;;;8.50;58.30;;;;;;2301823;58;20112;-78
2022/03/25 02:26:39;;;;;;;;;;;8.50;58.30;;;;;;2301969;58;20068;-77
2022/03/25 02:29:09;;;;;;;;;;;8.50;58.40;;;;;;2301075;58;20155;-76
2022/03/25 02:31:36;;;;;;;;;;;8.40;58.50;;;;;;2299882;58;20147;-78
2022/03/25 02:34:04;;;;;;;;;;;8.40;58.50;;;;;;2301935;58;20052;-77
2022/03/25 02:36:36;;;;;;;;;;;8.40;58.40;;;;;;2302153;58;20112;-77
2022/03/25 02:39:02;;;;;;;;;;;8.40;58.50;;;;;;2537597;54;20120;-78
2022/03/25 02:41:29;;;;;;;;;;;8.40;58.50;;;;;;2538896;54;20307;-78
2022/03/25 02:43:55;;;;;;;;;;;8.40;58.40;;;;;;2301817;58;20124;-77
2022/03/25 02:46:24;;;;;;;;;;;8.30;58.50;;;;;;2538979;54;20347;-77
2022/03/25 02:48:50;;;;;;;;;;;8.30;58.50;;;;;;2299766;58;20076;-77
2022/03/25 02:51:17;;;;;;;;;;;8.30;58.60;;;;;;2538464;54;20136;-77
2022/03/25 02:53:43;;;;;;;;;;;8.30;58.60;;;;;;2300965;58;20125;-77
2022/03/25 02:56:10;;;;;;;;;;;8.20;58.60;;;;;;2301693;58;20188;-77
2022/03/25 02:58:37;;;;;;;;;;;8.30;58.70;;;;;;2301792;58;20378;-77
2022/03/25 03:01:03;;;;;;;;;;;8.20;58.80;;;;;;2301350;58;20331;-77
2022/03/25 03:03:30;;;;;;;;;;;8.20;58.80;;;;;;2301668;58;20135;-77
2022/03/25 03:05:56;;;;;;;;;;;8.10;58.90;;;;;;2538492;54;20161;-77
2022/03/25 03:08:23;;;;;;;;;;;8.10;59.10;;;;;;2538409;54;20172;-77
2022/03/25 03:10:50;;;;;;;;;;;8.10;59.10;;;;;;2300715;58;20084;-77
2022/03/25 03:13:16;;;;;;;;;;;8.10;59.30;;;;;;2538556;54;20068;-77
2022/03/25 03:15:43;;;;;;;;;;;8.10;59.40;;;;;;2301705;58;20084;-77
2022/03/25 03:18:10;;;;;;;;;;;8.10;59.30;;;;;;2538456;54;20060;-78
2022/03/25 03:20:37;;;;;;;;;;;8.10;59.40;;;;;;2301312;58;20279;-77
2022/03/25 03:23:05;;;;;;;;;;;8.10;60.00;;;;;;2538537;54;20092;-77
2022/03/25 03:25:31;;;;;;;;;;;8.00;59.40;;;;;;2538706;54;20163;-77
2022/03/25 03:27:58;;;;;;;;;;;8.00;59.50;;;;;;2301260;58;20076;-77
2022/03/25 03:30:24;;;;;;;;;;;8.00;59.40;;;;;;2537863;54;20084;-77
2022/03/25 03:32:55;;;;;;;;;;;8.00;59.30;;;;;;2301926;58;20363;-77
2022/03/25 03:35:22;;;;;;;;;;;8.00;59.20;;;;;;2302041;58;20072;-77
2022/03/25 03:37:49;;;;;;;;;;;8.00;59.20;;;;;;2301579;58;20096;-77
2022/03/25 03:40:15;;;;;;;;;;;8.00;59.20;;;;;;2301278;58;20095;-77
2022/03/25 03:42:42;;;;;;;;;;;8.00;59.10;;;;;;2538331;54;20088;-77
2022/03/25 03:45:09;;;;;;;;;;;7.90;59.10;;;;;;2300938;58;20072;-77
2022/03/25 03:47:36;;;;;;;;;;;7.90;59.10;;;;;;2301518;58;20072;-77
2022/03/25 03:50:03;;;;;;;;;;;7.90;59.80;;;;;;2538155;54;20068;-77
2022/03/25 03:52:30;;;;;;;;;;;7.90;59.00;;;;;;2301729;58;20121;-76
2022/03/25 03:54:56;;;;;;;;;;;7.80;59.00;;;;;;2301739;58;20391;-77
2022/03/25 03:57:23;;;;;;;;;;;7.80;59.00;;;;;;2301690;58;20185;-76
2022/03/25 03:59:50;;;;;;;;;;;7.80;59.10;;;;;;2301087;58;20071;-76
2022/03/25 04:02:16;;;;;;;;;;;7.80;59.10;;;;;;2537769;54;20116;-76
2022/03/25 04:04:43;;;;;;;;;;;7.80;59.30;;;;;;2299846;58;20060;-76
2022/03/25 04:07:09;;;;;;;;;;;7.70;59.40;;;;;;2301612;58;20161;-76
2022/03/25 04:09:36;;;;;;;;;;;7.70;60.10;;;;;;2301294;58;20128;-76
2022/03/25 04:12:03;;;;;;;;;;;7.70;59.40;;;;;;2301897;58;20108;-76
2022/03/25 04:14:30;;;;;;;;;;;7.70;59.50;;;;;;2301469;58;20343;-76
2022/03/25 04:16:56;;;;;;;;;;;7.70;59.50;;;;;;2302181;58;20072;-76
2022/03/25 04:19:23;;;;;;;;;;;7.60;59.40;;;;;;2300923;58;20144;-77
2022/03/25 04:21:49;;;;;;;;;;;7.60;59.40;;;;;;2536041;54;20108;-76
2022/03/25 04:24:16;;;;;;;;;;;7.60;59.30;;;;;;2301825;58;20104;-77
2022/03/25 04:26:42;;;;;;;;;;;7.60;59.30;;;;;;2544156;53;20051;-75
2022/03/25 04:29:09;;;;;;;;;;;7.60;59.20;;;;;;2325319;58;20075;-74
2022/03/25 04:31:35;;;;;;;;;;;7.60;59.40;;;;;;2325384;58;20083;-75
2022/03/25 04:34:01;;;;;;;;;;;7.60;59.50;;;;;;2325622;58;20376;-75
2022/03/25 04:36:28;;;;;;;;;;;7.50;59.50;;;;;;2325206;58;20286;-75
2022/03/25 04:38:54;;;;;;;;;;;7.50;59.60;;;;;;2567425;54;20083;-75
2022/03/25 04:41:22;;;;;;;;;;;7.50;59.70;;;;;;2325578;58;20075;-74
2022/03/25 04:43:49;;;;;;;;;;;7.50;59.60;;;;;;2325818;58;20083;-75
2022/03/25 04:46:15;;;;;;;;;;;7.50;59.60;;;;;;2325227;58;20151;-76
2022/03/25 04:48:42;;;;;;;;;;;7.40;59.60;;;;;;2325466;58;20067;-75
2022/03/25 04:51:08;;;;;;;;;;;7.40;59.50;;;;;;2325593;58;20091;-75
2022/03/25 04:53:35;;;;;;;;;;;7.40;59.70;;;;;;2325348;58;20079;-75
2022/03/25 04:56:01;;;;;;;;;;;7.40;59.60;;;;;;2325616;58;20143;-75
2022/03/25 04:58:28;;;;;;;;;;;7.40;59.60;;;;;;2325656;58;20112;-74
2022/03/25 05:00:55;;;;;;;;;;;7.30;59.70;;;;;;2325088;58;20088;-74
2022/03/25 05:03:21;;;;;;;;;;;7.30;59.70;;;;;;2325767;58;20086;-74
2022/03/25 05:05:48;;;;;;;;;;;7.30;59.80;;;;;;2325528;58;20103;-74
2022/03/25 05:08:15;;;;;;;;;;;7.30;59.80;;;;;;2324756;58;20118;-74
2022/03/25 05:10:41;;;;;;;;;;;7.30;59.80;;;;;;2325147;58;20087;-75
2022/03/25 05:13:08;;;;;;;;;;;7.20;59.90;;;;;;2325317;58;20115;-74
2022/03/25 05:15:35;;;;;;;;;;;7.20;60.60;;;;;;2325440;58;20155;-75
2022/03/25 05:18:02;;;;;;;;;;;7.20;60.00;;;;;;2325542;58;20130;-75
2022/03/25 05:20:28;;;;;;;;;;;7.20;59.80;;;;;;2325234;58;20134;-75
2022/03/25 05:22:55;;;;;;;;;;;7.20;59.90;;;;;;2325911;58;20067;-74
2022/03/25 05:25:22;;;;;;;;;;;7.20;60.10;;;;;;2325164;58;20138;-75
2022/03/25 05:27:50;;;;;;;;;;;7.20;60.10;;;;;;2325113;58;20124;-74
2022/03/25 05:32:54;;;;;;;;;;;7.20;60.10;;;;;;2338765;57;20058;-73
2022/03/25 05:35:21;;;;;;;;;;;7.20;60.00;;;;;;2351301;57;20090;-73
2022/03/25 05:37:48;;;;;;;;;;;7.20;60.60;;;;;;2351198;57;20082;-73
2022/03/25 05:40:16;;;;;;;;;;;7.20;60.30;;;;;;2350888;57;20079;-73
2022/03/25 05:42:43;;;;;;;;;;;7.20;60.40;;;;;;2351008;57;20054;-73
2022/03/25 05:45:10;;;;;;;;;;;7.20;60.50;;;;;;2350778;57;20082;-73
2022/03/25 05:47:37;;;;;;;;;;;7.20;60.50;;;;;;2349631;57;20401;-73
2022/03/25 05:50:05;;;;;;;;;;;7.20;60.30;;;;;;2350108;57;20082;-74
2022/03/25 05:52:31;;;;;;;;;;;7.20;60.60;;;;;;2598946;52;20064;-73
2022/03/25 05:54:58;;;;;;;;;;;7.20;60.70;;;;;;2350877;57;20083;-73
2022/03/25 05:57:24;;;;;;;;;;;7.20;60.90;;;;;;2350607;57;20086;-73
2022/03/25 05:59:51;;;;;;;;;;;7.20;60.90;;;;;;2598124;53;20131;-73
2022/03/25 06:02:17;;;;;;;;;;;7.20;61.00;;;;;;2350797;57;20107;-73
2022/03/25 06:04:44;;;;;;;;;;;7.30;61.00;;;;;;2350588;57;20886;-73
2022/03/25 06:07:11;;;;;;;;;;;7.30;61.00;;;;;;2350987;57;20145;-73
2022/03/25 06:09:37;;;;;;;;;;;7.30;60.70;;;;;;2350496;57;20133;-74
2022/03/25 06:12:05;;;;;;;;;;;7.30;61.30;;;;;;2350926;57;20078;-75
2022/03/25 06:14:31;;;;;;;;;;;7.30;61.40;;;;;;2350588;57;20138;-75
2022/03/25 06:16:58;;;;;;;;;;;7.30;61.50;;;;;;2350423;57;20185;-73
2022/03/25 06:19:24;;;;;;;;;;;7.30;61.50;;;;;;2350381;57;20111;-74
2022/03/25 06:21:51;;;;;;;;;;;7.40;61.70;;;;;;2351201;57;20074;-75
2022/03/25 06:24:17;;;;;;;;;;;7.40;61.70;;;;;;2351005;57;20827;-73
2022/03/25 06:26:44;;;;;;;;;;;7.40;61.70;;;;;;2598922;53;20190;-74
2022/03/25 06:29:10;;;;;;;;;;;7.40;61.80;;;;;;2350698;57;20078;-73
2022/03/25 06:31:37;;;;;;;;;;;7.50;61.90;;;;;;2599041;52;20120;-74
2022/03/25 06:34:03;;;;;;;;;;;7.50;61.90;;;;;;2351224;57;20054;-74
2022/03/25 06:36:30;;;;;;;;;;;7.50;62.10;;;;;;2350483;57;20130;-73
2022/03/25 06:38:56;;;;;;;;;;;7.60;62.20;;;;;;2350764;57;20261;-75
2022/03/25 06:41:23;;;;;;;;;;;7.60;62.20;;;;;;2598640;52;20141;-73
2022/03/25 06:43:50;;;;;;;;;;;7.70;62.40;;;;;;2350247;57;20117;-73
2022/03/25 06:46:17;;;;;;;;;;;7.70;62.50;;;;;;2597641;53;20077;-73
2022/03/25 06:48:44;;;;;;;;;;;7.80;62.50;;;;;;2350000;57;20078;-73
2022/03/25 06:51:11;;;;;;;;;;;7.80;62.60;;;;;;2349688;57;20122;-74
2022/03/25 06:53:38;;;;;;;;;;;7.90;62.70;;;;;;2349948;57;20090;-73
2022/03/25 06:56:05;;;;;;;;;;;7.90;62.60;;;;;;2597705;53;20059;-74
2022/03/25 06:58:34;;;;;;;;;;;7.90;62.60;;;;;;2350034;57;20353;-74
2022/03/25 07:01:01;;;;;;;;;;;8.00;62.70;;;;;;2350011;57;20110;-74
2022/03/25 07:03:28;;;;;;;;;;;8.10;62.90;;;;;;2349210;57;20055;-74
2022/03/25 07:05:59;;;;;;;;;;;8.10;63.00;;;;;;2349860;57;20131;-73
2022/03/25 07:08:27;;;;;;;;;;;8.20;63.10;;;;;;2349749;57;20066;-75
2022/03/25 07:10:54;;;;;;;;;;;8.20;63.00;;;;;;2349850;57;20130;-74
2022/03/25 07:13:20;;;;;;;;;;;8.30;63.00;;;;;;2597466;52;20070;-73
2022/03/25 07:15:47;;;;;;;;;;;8.40;62.90;;;;;;2348742;57;20082;-74
2022/03/25 07:18:13;;;;;;;;;;;8.40;63.00;;;;;;2349405;56;20070;-74
2022/03/25 07:20:40;;;;;;;;;;;8.50;63.00;;;;;;2350137;57;20155;-74
2022/03/25 07:23:07;;;;;;;;;;;8.60;63.00;;;;;;2350213;57;20086;-74
2022/03/25 07:25:33;;;;;;;;;;;8.60;62.50;;;;;;2350200;57;20086;-74
2022/03/25 07:28:00;;;;;;;;;;;8.70;62.90;;;;;;2350274;57;20082;-74
2022/03/25 07:30:26;;;;;;;;;;;8.80;62.90;;;;;;2349717;57;20190;-74
2022/03/25 07:32:53;;;;;;;;;;;8.90;63.00;;;;;;2348051;57;20352;-74
2022/03/25 07:35:19;;;;;;;;;;;9.00;63.00;;;;;;2349872;57;20149;-74
2022/03/25 07:37:46;;;;;;;;;;;9.00;62.60;;;;;;2597363;53;20082;-74
2022/03/25 07:40:13;;;;;;;;;;;9.10;62.20;;;;;;2349872;57;20082;-74
2022/03/25 07:42:41;;;;;;;;;;;9.20;62.90;;;;;;2597598;53;20142;-74
2022/03/25 07:45:09;;;;;;;;;;;9.30;63.20;;;;;;2349818;57;20166;-74
2022/03/25 07:47:38;;;;;;;;;;;9.30;63.70;;;;;;2350059;57;20086;-74
2022/03/25 07:50:08;;;;;;;;;;;9.40;64.50;;;;;;2349307;57;20094;-74
2022/03/25 07:52:35;;;;;;;;;;;9.50;65.40;;;;;;2349977;57;20070;-74
2022/03/25 07:55:01;;;;;;;;;;;9.60;65.80;;;;;;2349815;57;20082;-74
2022/03/25 07:57:28;;;;;;;;;;;9.70;66.50;;;;;;2349666;57;20158;-74
2022/03/25 07:59:54;;;;;;;;;;;9.70;67.10;;;;;;2349727;57;20082;-74
2022/03/25 08:02:21;;;;;;;;;;;9.80;67.10;;;;;;2349727;57;20078;-73
2022/03/25 08:04:47;;;;;;;;;;;9.90;67.40;;;;;;2597904;53;20054;-73
2022/03/25 08:07:14;;;;;;;;;;;10.00;67.40;;;;;;2349344;57;20085;-73
2022/03/25 08:09:40;;;;;;;;;;;10.10;64.90;;;;;;2350083;57;20066;-73
2022/03/25 08:12:07;;;;;;;;;;;10.20;63.80;;;;;;2349829;57;20317;-73
2022/03/25 08:14:35;;;;;;;;;;;10.30;63.90;;;;;;2349961;57;20067;-73
2022/03/25 08:17:01;;;;;;;;;;;10.40;63.90;;;;;;2350074;57;20066;-73
2022/03/25 08:19:30;;;;;;;;;;;10.40;63.70;;;;;;2349829;57;20073;-74
2022/03/25 08:21:56;;;;;;;;;;;10.50;63.40;;;;;;2350108;57;20071;-73
2022/03/25 08:29:52;;;;;;;;;;;10.70;64.20;;;;;;2349728;57;20082;-73
2022/03/25 08:32:19;;;;;;;;;;;10.80;64.20;;;;;;2349670;57;20102;-73
2022/03/25 08:34:46;;;;;;;;;;;10.90;64.00;;;;;;2348760;57;20133;-74
2022/03/25 08:37:12;;;;;;;;;;;11.00;63.80;;;;;;2348030;57;20400;-74
2022/03/25 08:39:38;;;;;;;;;;;11.10;63.60;;;;;;2347724;57;20081;-73
2022/03/25 08:42:08;;;;;;;;;;;11.20;63.20;;;;;;2349265;57;20329;-73
2022/03/25 08:44:34;;;;;;;;;;;11.30;62.80;;;;;;2349048;57;20074;-73
2022/03/25 08:47:01;;;;;;;;;;;11.40;62.40;;;;;;2595508;53;20082;-73
2022/03/25 08:49:30;;;;;;;;;;;11.40;61.70;;;;;;2596340;53;20062;-73
2022/03/25 08:51:56;;;;;;;;;;;11.50;61.40;;;;;;2348834;57;20070;-73
2022/03/25 08:54:23;;;;;;;;;;;11.60;61.40;;;;;;2348636;57;20158;-74
2022/03/25 08:56:50;;;;;;;;;;;11.70;61.20;;;;;;2349294;57;20201;-74
2022/03/25 08:59:16;;;;;;;;;;;11.70;61.00;;;;;;2348267;57;20078;-73
2022/03/25 09:01:44;;;;;;;;;;;11.80;60.90;;;;;;2349943;57;20197;-73
2022/03/25 09:04:10;;;;;;;;;;;11.90;61.00;;;;;;2349847;57;20058;-74
2022/03/25 09:06:37;;;;;;;;;;;11.90;61.50;;;;;;2349787;57;20086;-73
2022/03/25 09:09:03;;;;;;;;;;;12.00;60.30;;;;;;2349426;57;20090;-74
2022/03/25 09:11:31;;;;;;;;;;;12.20;60.30;;;;;;2349592;57;20090;-73
2022/03/25 09:13:58;;;;;;;;;;;12.20;59.70;;;;;;2349534;57;20209;-73
2022/03/25 09:16:24;;;;;;;;;;;12.30;59.00;;;;;;2345836;57;20170;-74
2022/03/25 09:18:51;;;;;;;;;;;12.30;59.20;;;;;;2347986;57;20378;-73
2022/03/25 09:21:18;;;;;;;;;;;12.40;59.40;;;;;;2349325;57;20090;-72
2022/03/25 09:23:44;;;;;;;;;;;12.40;58.90;;;;;;2597280;53;20385;-74
2022/03/25 09:26:11;;;;;;;;;;;12.50;58.80;;;;;;2350118;57;20933;-74
2022/03/25 09:28:37;;;;;;;;;;;12.60;58.90;;;;;;2597063;53;20075;-73
2022/03/25 09:31:04;;;;;;;;;;;12.60;58.80;;;;;;2349639;57;20074;-74
2022/03/25 09:36:34;;;;;;;;;;;12.80;58.70;;;;;;2310720;57;20082;-74
2022/03/25 09:39:01;;;;;;;;;;;12.80;58.50;;;;;;2348991;57;20082;-75
2022/03/25 09:41:27;;;;;;;;;;;12.90;58.60;;;;;;2349996;57;20349;-74
2022/03/25 09:43:54;;;;;;;;;;;13.00;57.80;;;;;;2349702;57;20066;-75
2022/03/25 09:46:20;;;;;;;;;;;13.10;57.80;;;;;;2349527;57;20723;-75
2022/03/25 09:48:47;;;;;;;;;;;13.10;57.70;;;;;;2349694;57;20118;-75
2022/03/25 09:51:13;;;;;;;;;;;13.30;56.90;;;;;;2597446;52;20125;-74
2022/03/25 09:53:40;;;;;;;;;;;13.30;56.40;;;;;;2348588;57;20054;-75
2022/03/25 09:56:07;;;;;;;;;;;13.40;56.50;;;;;;2349636;57;20082;-76
2022/03/25 09:58:34;;;;;;;;;;;13.40;56.60;;;;;;2349933;57;20066;-75
2022/03/25 10:01:00;;;;;;;;;;;13.40;55.80;;;;;;2349833;57;20070;-75
2022/03/25 10:03:31;;;;;;;;;;;13.50;55.60;;;;;;2350047;57;20134;-76
2022/03/25 10:05:58;;;;;;;;;;;13.60;56.10;;;;;;2349325;57;20118;-75
2022/03/25 10:08:29;;;;;;;;;;;13.70;56.40;;;;;;2350205;57;20082;-76
2022/03/25 10:10:55;;;;;;;;;;;13.80;56.20;;;;;;2347920;57;20074;-75
2022/03/25 10:13:22;;;;;;;;;;;13.80;56.20;;;;;;2349535;57;20129;-76
2022/03/25 10:15:48;;;;;;;;;;;13.80;56.00;;;;;;2350125;57;20077;-75
2022/03/25 10:18:17;;;;;;;;;;;13.90;55.20;;;;;;2349978;57;20103;-75
2022/03/25 10:20:44;;;;;;;;;;;14.10;55.10;;;;;;2349575;57;20198;-76
2022/03/25 10:23:11;;;;;;;;;;;14.10;54.50;;;;;;2349878;57;20078;-74
2022/03/25 10:25:42;;;;;;;;;;;14.20;54.40;;;;;;2350185;57;20086;-73
2022/03/25 10:28:20;;;;;;;;;;;14.20;54.00;;;;;;2511744;52;20393;-76
2022/03/25 10:30:49;;;;;;;;;;;14.40;53.80;;;;;;2322132;58;20087;-76
2022/03/25 10:33:20;;;;;;;;;;;14.40;53.80;;;;;;2322733;58;20146;-75
2022/03/25 10:35:57;;;;;;;;;;;14.50;53.40;;;;;;2322774;58;20131;-75
2022/03/25 10:38:24;;;;;;;;;;;14.60;53.40;;;;;;2322679;58;20146;-75
2022/03/25 10:40:51;;;;;;;;;;;14.70;53.30;;;;;;2322578;58;20056;-74
2022/03/25 10:43:18;;;;;;;;;;;14.80;53.60;;;;;;2321173;58;20119;-75
2022/03/25 10:45:45;;;;;;;;;;;14.90;53.40;;;;;;2322330;58;20302;-74
2022/03/25 10:48:13;;;;;;;;;;;14.90;52.90;;;;;;2322810;58;20063;-75
2022/03/25 10:50:54;;;;;;;;;;;15.00;52.70;;;;;;2322513;58;20100;-75
2022/03/25 10:53:21;;;;;;;;;;;15.10;52.40;;;;;;2322261;58;20091;-75
2022/03/25 10:55:52;;;;;;;;;;;15.20;52.20;;;;;;2322699;58;20072;-75
2022/03/25 10:58:19;;;;;;;;;;;15.30;50.80;;;;;;2323050;58;20083;-75
2022/03/25 11:00:45;;;;;;;;;;;15.30;51.00;;;;;;2320456;58;20069;-75
2022/03/25 11:03:14;;;;;;;;;;;15.40;51.10;;;;;;2322691;58;20104;-76
2022/03/25 11:05:40;;;;;;;;;;;15.50;51.20;;;;;;2322886;58;20162;-75
2022/03/25 11:08:08;;;;;;;;;;;15.60;51.40;;;;;;2322626;58;20080;-76
2022/03/25 11:10:35;;;;;;;;;;;15.60;50.70;;;;;;2322110;58;20163;-75
2022/03/25 11:13:02;;;;;;;;;;;15.70;50.30;;;;;;2557407;54;20083;-76
2022/03/25 11:15:30;;;;;;;;;;;15.80;50.00;;;;;;2322841;58;20083;-75
2022/03/25 11:17:57;;;;;;;;;;;15.90;49.50;;;;;;2364277;54;20059;-75
2022/03/25 11:20:25;;;;;;;;;;;15.90;49.20;;;;;;2322155;58;20072;-75
2022/03/25 11:22:53;;;;;;;;;;;16.00;48.50;;;;;;2322729;58;20107;-76
2022/03/25 11:25:21;;;;;;;;;;;16.10;48.70;;;;;;2322468;58;20115;-75
2022/03/25 11:27:50;;;;;;;;;;;16.20;49.20;;;;;;2322358;58;20087;-76
2022/03/25 11:30:35;;;;;;;;;;;16.30;49.00;;;;;;2322628;58;20063;-76
2022/03/25 11:34:03;;;;;;;;;;;16.40;48.50;;;;;;2322202;58;20075;-76
2022/03/25 11:36:29;;;;;;;;;;;16.50;47.00;;;;;;2322659;58;20116;-76
2022/03/25 11:39:15;;;;;;;;;;;16.60;47.10;;;;;;2322522;58;20120;-75
2022/03/25 11:41:42;;;;;;;;;;;16.70;46.70;;;;;;2322976;58;20134;-75
2022/03/25 11:44:19;;;;;;;;;;;16.80;45.70;;;;;;2321555;58;20139;-75
2022/03/25 11:47:04;;;;;;;;;;;16.90;45.20;;;;;;2322295;58;20135;-76
2022/03/25 11:49:31;;;;;;;;;;;16.90;45.30;;;;;;2320059;58;20071;-76
2022/03/25 11:52:25;;;;;;;;;;;16.90;45.60;;;;;;2322241;58;20155;-75
2022/03/25 11:54:55;;;;;;;;;;;17.00;45.80;;;;;;2322633;58;20071;-79
2022/03/25 11:57:22;;;;;;;;;;;17.10;45.70;;;;;;2322801;55;20063;-75
2022/03/25 11:59:49;;;;;;;;;;;17.10;45.40;;;;;;2321719;58;20143;-75
2022/03/25 12:02:23;;;;;;;;;;;17.20;45.30;;;;;;2319793;58;20087;-76
2022/03/25 12:04:49;;;;;;;;;;;17.20;45.00;;;;;;2321671;58;20074;-76
2022/03/25 12:07:16;;;;;;;;;;;17.30;45.80;;;;;;2385856;54;20111;-77
2022/03/25 12:09:45;;;;;;;;;;;17.40;46.50;;;;;;2321816;58;20088;-76
2022/03/25 12:12:12;;;;;;;;;;;17.40;46.20;;;;;;2321668;58;20436;-76
2022/03/25 12:15:04;;;;;;;;;;;17.50;45.50;;;;;;2321755;58;20083;-75
2022/03/25 12:17:30;;;;;;;;;;;17.60;45.20;;;;;;2321858;58;20051;-75
2022/03/25 12:19:57;;;;;;;;;;;17.70;45.30;;;;;;2321673;58;20055;-76
2022/03/25 12:22:28;;;;;;;;;;;17.70;45.30;;;;;;2321730;58;20143;-76
2022/03/25 12:24:56;;;;;;;;;;;17.80;45.50;;;;;;2322170;58;20115;-76
2022/03/25 12:27:23;;;;;;;;;;;17.80;44.70;;;;;;2322058;58;20106;-76
2022/03/25 12:29:51;;;;;;;;;;;17.80;44.60;;;;;;2321644;58;20055;-75
2022/03/25 12:32:19;;;;;;;;;;;17.90;44.80;;;;;;2322403;58;20159;-76
2022/03/25 12:34:50;;;;;;;;;;;17.90;44.50;;;;;;2319210;58;20068;-76
2022/03/25 12:37:22;;;;;;;;;;;18.00;44.50;;;;;;2320310;58;20083;-75
2022/03/25 12:39:48;;;;;;;;;;;18.00;43.90;;;;;;2319164;58;20139;-76
2022/03/25 12:42:15;;;;;;;;;;;18.10;43.70;;;;;;2320437;58;20310;-75
2022/03/25 12:44:41;;;;;;;;;;;18.10;43.80;;;;;;2321542;58;20071;-75
2022/03/25 12:47:15;;;;;;;;;;;18.10;44.30;;;;;;2320069;58;20084;-75
2022/03/25 12:49:41;;;;;;;;;;;18.10;43.70;;;;;;2320196;58;20078;-75
2022/03/25 12:52:08;;;;;;;;;;;18.20;44.00;;;;;;2321211;58;20079;-76
2022/03/25 12:54:36;;;;;;;;;;;18.30;43.90;;;;;;2322080;58;20079;-75
2022/03/25 12:57:03;;;;;;;;;;;18.30;43.60;;;;;;2319815;58;20790;-75
2022/03/25 12:59:31;;;;;;;;;;;18.40;43.60;;;;;;2321657;58;20083;-76
2022/03/25 13:02:05;;;;;;;;;;;18.40;45.20;;;;;;2321511;58;20190;-75
2022/03/25 13:04:31;;;;;;;;;;;18.50;44.40;;;;;;2321472;58;20127;-76
2022/03/25 13:06:58;;;;;;;;;;;18.50;43.70;;;;;;2321447;58;20245;-75
2022/03/25 13:09:25;;;;;;;;;;;18.60;43.00;;;;;;2321801;58;20115;-75
2022/03/25 13:11:56;;;;;;;;;;;18.60;43.20;;;;;;2541435;54;20064;-75
2022/03/25 13:14:23;;;;;;;;;;;18.60;42.60;;;;;;2322100;58;20315;-76
2022/03/25 13:16:49;;;;;;;;;;;18.70;42.10;;;;;;2321583;58;20139;-76
2022/03/25 13:19:16;;;;;;;;;;;18.70;42.00;;;;;;2321969;58;20170;-76
2022/03/25 13:21:43;;;;;;;;;;;18.70;42.20;;;;;;2321838;58;20108;-75
2022/03/25 13:24:09;;;;;;;;;;;18.80;42.30;;;;;;2423552;54;20071;-75
2022/03/25 13:26:37;;;;;;;;;;;18.80;42.30;;;;;;2320907;58;20083;-76
2022/03/25 13:29:05;;;;;;;;;;;18.80;42.80;;;;;;2459403;54;20142;-75
2022/03/25 13:31:31;;;;;;;;;;;18.90;42.10;;;;;;2321609;58;20143;-76
2022/03/25 13:33:58;;;;;;;;;;;18.90;42.40;;;;;;2348280;54;20135;-80
2022/03/25 13:36:26;;;;;;;;;;;18.90;41.70;;;;;;2371105;54;20087;-79
2022/03/25 13:38:53;;;;;;;;;;;18.90;40.40;;;;;;2322301;58;20138;-76
2022/03/25 13:41:22;;;;;;;;;;;18.90;41.00;;;;;;2322668;58;20259;-75
2022/03/25 13:43:50;;;;;;;;;;;18.90;41.40;;;;;;2322402;58;20067;-76
2022/03/25 13:46:20;;;;;;;;;;;18.90;42.00;;;;;;2321271;58;20087;-76
2022/03/25 13:48:47;;;;;;;;;;;19.00;42.10;;;;;;2334141;54;20126;-75
2022/03/25 13:51:17;;;;;;;;;;;19.00;42.30;;;;;;2328505;54;20070;-76
2022/03/25 13:53:45;;;;;;;;;;;19.10;43.10;;;;;;2322823;58;20060;-76
2022/03/25 13:56:13;;;;;;;;;;;19.10;41.80;;;;;;2323051;58;20083;-75
2022/03/25 13:58:43;;;;;;;;;;;19.10;41.10;;;;;;2321730;58;20087;-76
2022/03/25 14:01:10;;;;;;;;;;;19.20;41.50;;;;;;2410030;54;20072;-76
2022/03/25 14:03:36;;;;;;;;;;;19.20;41.80;;;;;;2322780;58;20075;-75
2022/03/25 14:06:10;;;;;;;;;;;19.30;42.40;;;;;;2380736;54;20369;-75
2022/03/25 14:08:36;;;;;;;;;;;19.40;41.80;;;;;;2322600;58;20074;-76
2022/03/25 14:11:04;;;;;;;;;;;19.30;41.60;;;;;;2562841;54;20075;-75
2022/03/25 14:13:31;;;;;;;;;;;19.30;41.70;;;;;;2322284;58;20146;-76
2022/03/25 14:16:12;;;;;;;;;;;19.30;40.20;;;;;;2321669;58;20143;-76
2022/03/25 14:18:48;;;;;;;;;;;19.30;40.00;;;;;;2322718;58;20075;-75
2022/03/25 14:21:22;;;;;;;;;;;19.30;42.40;;;;;;2322911;58;20067;-76
2022/03/25 14:23:49;;;;;;;;;;;19.40;40.80;;;;;;2397208;54;20147;-76
2022/03/25 14:26:15;;;;;;;;;;;19.40;41.00;;;;;;2322757;58;20385;-75
2022/03/25 14:28:42;;;;;;;;;;;19.40;39.70;;;;;;2322685;58;20107;-75
2022/03/25 14:31:08;;;;;;;;;;;19.40;41.30;;;;;;2321669;58;20326;-75
2022/03/25 14:33:36;;;;;;;;;;;19.30;39.60;;;;;;2321446;58;20119;-76
2022/03/25 14:36:03;;;;;;;;;;;19.30;39.60;;;;;;2322890;58;20055;-76
2022/03/25 14:38:30;;;;;;;;;;;19.40;39.20;;;;;;2417157;54;20334;-76